sensor_id;sensor_type;location;lat;lon;timestamp;pressure;altitude;pressure_sealevel;temperature;humidity
65359;BME280;52491;45.900;6.346;2023-07-09T00:02:10;94320.75;;;28.64;32.17
65359;BME280;52491;45.900;6.346;2023-07-09T00:04:36;94321.56;;;28.59;32.27
65359;BME280;52491;45.900;6.346;2023-07-09T00:07:03;94318.94;;;28.54;32.44
65359;BME280;52491;45.900;6.346;2023-07-09T00:09:29;94321.31;;;28.55;32.17
65359;BME280;52491;45.900;6.346;2023-07-09T00:11:55;94327.25;;;28.52;32.41
65359;BME280;52491;45.900;6.346;2023-07-09T00:14:21;94331.81;;;28.52;32.47
65359;BME280;52491;45.900;6.346;2023-07-09T00:16:47;94324.84;;;28.51;32.17
65359;BME280;52491;45.900;6.346;2023-07-09T00:19:19;94328.06;;;28.53;32.17
65359;BME280;52491;45.900;6.346;2023-07-09T00:21:48;94333.38;;;28.58;32.16
65359;BME280;52491;45.900;6.346;2023-07-09T00:24:18;94324.53;;;28.58;32.04
65359;BME280;52491;45.900;6.346;2023-07-09T00:26:44;94329.94;;;28.52;32.07
65359;BME280;52491;45.900;6.346;2023-07-09T00:29:13;94333.50;;;28.38;32.16
65359;BME280;52491;45.900;6.346;2023-07-09T00:31:39;94335.34;;;28.37;32.06
65359;BME280;52491;45.900;6.346;2023-07-09T00:34:08;94335.22;;;28.08;32.50
65359;BME280;52491;45.900;6.346;2023-07-09T00:36:34;94332.56;;;27.98;32.81
65359;BME280;52491;45.900;6.346;2023-07-09T00:39:00;94335.00;;;27.94;32.59
65359;BME280;52491;45.900;6.346;2023-07-09T00:41:33;94340.19;;;28.35;32.12
65359;BME280;52491;45.900;6.346;2023-07-09T00:44:18;94340.09;;;28.01;32.73
65359;BME280;52491;45.900;6.346;2023-07-09T00:49:15;94335.63;;;28.41;31.84
65359;BME280;52491;45.900;6.346;2023-07-09T00:51:44;94342.84;;;28.45;31.88
65359;BME280;52491;45.900;6.346;2023-07-09T00:54:27;94340.44;;;28.49;31.76
65359;BME280;52491;45.900;6.346;2023-07-09T00:57:02;94342.28;;;28.48;31.57
65359;BME280;52491;45.900;6.346;2023-07-09T00:59:31;94341.78;;;28.46;31.71
65359;BME280;52491;45.900;6.346;2023-07-09T01:01:57;94343.66;;;28.46;31.42
65359;BME280;52491;45.900;6.346;2023-07-09T01:04:25;94339.34;;;28.45;31.60
65359;BME280;52491;45.900;6.346;2023-07-09T01:06:54;94340.16;;;28.45;31.66
65359;BME280;52491;45.900;6.346;2023-07-09T01:09:24;94339.91;;;28.47;31.44
65359;BME280;52491;45.900;6.346;2023-07-09T01:11:50;94336.69;;;28.45;31.50
65359;BME280;52491;45.900;6.346;2023-07-09T01:14:19;94336.41;;;28.46;31.50
65359;BME280;52491;45.900;6.346;2023-07-09T01:16:49;94342.84;;;28.45;31.72
65359;BME280;52491;45.900;6.346;2023-07-09T01:19:23;94343.13;;;28.39;31.76
65359;BME280;52491;45.900;6.346;2023-07-09T01:22:00;94341.50;;;28.43;31.47
65359;BME280;52491;45.900;6.346;2023-07-09T01:24:49;94334.41;;;28.13;32.13
65359;BME280;52491;45.900;6.346;2023-07-09T01:27:17;94343.03;;;28.04;32.30
65359;BME280;52491;45.900;6.346;2023-07-09T01:29:43;94337.78;;;28.33;31.86
65359;BME280;52491;45.900;6.346;2023-07-09T01:32:19;94346.06;;;28.37;31.71
65359;BME280;52491;45.900;6.346;2023-07-09T01:34:46;94345.56;;;28.35;31.54
65359;BME280;52491;45.900;6.346;2023-07-09T01:37:17;94347.16;;;28.36;31.64
65359;BME280;52491;45.900;6.346;2023-07-09T01:39:43;94343.69;;;28.36;31.52
65359;BME280;52491;45.900;6.346;2023-07-09T01:42:09;94338.06;;;28.32;31.58
65359;BME280;52491;45.900;6.346;2023-07-09T01:44:36;94342.88;;;28.35;31.63
65359;BME280;52491;45.900;6.346;2023-07-09T01:47:04;94341.53;;;28.38;31.62
65359;BME280;52491;45.900;6.346;2023-07-09T01:49:30;94341.25;;;28.39;31.19
65359;BME280;52491;45.900;6.346;2023-07-09T01:51:59;94341.78;;;28.36;31.37
65359;BME280;52491;45.900;6.346;2023-07-09T01:54:30;94343.91;;;28.39;31.24
65359;BME280;52491;45.900;6.346;2023-07-09T01:57:19;94342.34;;;28.43;31.18
65359;BME280;52491;45.900;6.346;2023-07-09T01:59:51;94346.06;;;28.37;31.08
65359;BME280;52491;45.900;6.346;2023-07-09T02:02:18;94339.66;;;28.33;31.23
65359;BME280;52491;45.900;6.346;2023-07-09T02:04:48;94342.63;;;28.31;31.37
65359;BME280;52491;45.900;6.346;2023-07-09T02:07:14;94337.25;;;28.31;31.13
65359;BME280;52491;45.900;6.346;2023-07-09T02:09:41;94343.16;;;28.28;31.30
65359;BME280;52491;45.900;6.346;2023-07-09T02:12:07;94344.25;;;28.27;31.36
65359;BME280;52491;45.900;6.346;2023-07-09T02:14:33;94338.88;;;28.32;31.20
65359;BME280;52491;45.900;6.346;2023-07-09T02:16:58;94334.31;;;28.33;31.18
65359;BME280;52491;45.900;6.346;2023-07-09T02:19:24;94339.66;;;28.33;31.20
65359;BME280;52491;45.900;6.346;2023-07-09T02:21:49;94334.06;;;28.29;31.14
65359;BME280;52491;45.900;6.346;2023-07-09T02:24:15;94334.56;;;28.31;31.26
65359;BME280;52491;45.900;6.346;2023-07-09T02:26:40;94342.63;;;28.31;31.05
65359;BME280;52491;45.900;6.346;2023-07-09T02:29:06;94340.22;;;28.30;31.16
65359;BME280;52491;45.900;6.346;2023-07-09T02:31:32;94337.53;;;28.30;31.00
65359;BME280;52491;45.900;6.346;2023-07-09T02:33:59;94333.25;;;28.29;31.17
65359;BME280;52491;45.900;6.346;2023-07-09T02:36:25;94330.06;;;28.27;31.12
65359;BME280;52491;45.900;6.346;2023-07-09T02:38:51;94346.69;;;28.29;30.82
65359;BME280;52491;45.900;6.346;2023-07-09T02:41:16;94341.56;;;28.27;30.97
65359;BME280;52491;45.900;6.346;2023-07-09T02:43:42;94335.41;;;28.27;31.15
65359;BME280;52491;45.900;6.346;2023-07-09T02:46:08;94343.47;;;28.27;30.93
65359;BME280;52491;45.900;6.346;2023-07-09T02:48:33;94341.03;;;28.25;30.89
65359;BME280;52491;45.900;6.346;2023-07-09T02:50:59;94341.34;;;28.24;31.02
65359;BME280;52491;45.900;6.346;2023-07-09T02:53:25;94345.34;;;28.26;31.08
65359;BME280;52491;45.900;6.346;2023-07-09T02:55:51;94346.13;;;28.27;30.97
65359;BME280;52491;45.900;6.346;2023-07-09T02:58:16;94344.50;;;28.26;30.98
65359;BME280;52491;45.900;6.346;2023-07-09T03:00:42;94333.78;;;28.26;31.08
65359;BME280;52491;45.900;6.346;2023-07-09T03:03:07;94344.50;;;28.26;30.92
65359;BME280;52491;45.900;6.346;2023-07-09T03:05:33;94348.03;;;28.26;30.93
65359;BME280;52491;45.900;6.346;2023-07-09T03:07:59;94345.34;;;28.26;30.87
65359;BME280;52491;45.900;6.346;2023-07-09T03:10:24;94347.19;;;28.26;31.01
65359;BME280;52491;45.900;6.346;2023-07-09T03:12:50;94352.56;;;28.26;31.03
65359;BME280;52491;45.900;6.346;2023-07-09T03:15:15;94351.75;;;28.25;30.82
65359;BME280;52491;45.900;6.346;2023-07-09T03:17:41;94345.59;;;28.25;30.94
65359;BME280;52491;45.900;6.346;2023-07-09T03:20:07;94345.91;;;28.23;30.83
65359;BME280;52491;45.900;6.346;2023-07-09T03:22:33;94345.91;;;28.23;31.11
65359;BME280;52491;45.900;6.346;2023-07-09T03:24:59;94346.69;;;28.24;30.99
65359;BME280;52491;45.900;6.346;2023-07-09T03:27:24;94348.84;;;28.22;31.08
65359;BME280;52491;45.900;6.346;2023-07-09T03:29:50;94352.59;;;28.21;31.16
65359;BME280;52491;45.900;6.346;2023-07-09T03:32:15;94348.31;;;28.20;31.03
65359;BME280;52491;45.900;6.346;2023-07-09T03:34:41;94349.66;;;28.17;31.01
65359;BME280;52491;45.900;6.346;2023-07-09T03:37:06;94357.69;;;28.17;31.04
65359;BME280;52491;45.900;6.346;2023-07-09T03:39:32;94354.22;;;28.17;31.13
65359;BME280;52491;45.900;6.346;2023-07-09T03:41:57;94351.84;;;28.15;30.94
65359;BME280;52491;45.900;6.346;2023-07-09T03:44:23;94358.78;;;28.16;31.01
65359;BME280;52491;45.900;6.346;2023-07-09T03:46:48;94359.03;;;28.15;30.92
65359;BME280;52491;45.900;6.346;2023-07-09T03:49:14;94359.88;;;28.15;31.12
65359;BME280;52491;45.900;6.346;2023-07-09T03:51:39;94357.19;;;28.15;31.06
65359;BME280;52491;45.900;6.346;2023-07-09T03:54:05;94356.13;;;28.11;31.08
65359;BME280;52491;45.900;6.346;2023-07-09T03:56:31;94352.66;;;28.10;31.17
65359;BME280;52491;45.900;6.346;2023-07-09T03:58:56;94358.00;;;28.10;31.01
65359;BME280;52491;45.900;6.346;2023-07-09T04:01:22;94363.63;;;28.09;30.96
65359;BME280;52491;45.900;6.346;2023-07-09T04:03:48;94361.22;;;28.07;31.01
65359;BME280;52491;45.900;6.346;2023-07-09T04:06:13;94361.50;;;28.06;31.09
65359;BME280;52491;45.900;6.346;2023-07-09T04:08:39;94371.72;;;28.04;31.26
65359;BME280;52491;45.900;6.346;2023-07-09T04:11:05;94361.78;;;28.09;31.36
65359;BME280;52491;45.900;6.346;2023-07-09T04:13:30;94362.03;;;28.08;31.15
65359;BME280;52491;45.900;6.346;2023-07-09T04:15:56;94357.47;;;28.08;31.08
65359;BME280;52491;45.900;6.346;2023-07-09T04:18:22;94366.31;;;28.09;30.90
65359;BME280;52491;45.900;6.346;2023-07-09T04:20:49;94366.31;;;28.09;31.19
65359;BME280;52491;45.900;6.346;2023-07-09T04:23:15;94360.16;;;28.08;31.04
65359;BME280;52491;45.900;6.346;2023-07-09T04:25:41;94359.91;;;28.05;31.27
65359;BME280;52491;45.900;6.346;2023-07-09T04:28:07;94367.16;;;28.04;31.24
65359;BME280;52491;45.900;6.346;2023-07-09T04:30:32;94363.13;;;28.02;31.28
65359;BME280;52491;45.900;6.346;2023-07-09T04:32:58;94356.19;;;28.01;31.41
65359;BME280;52491;45.900;6.346;2023-07-09T04:35:24;94353.75;;;27.99;31.27
65359;BME280;52491;45.900;6.346;2023-07-09T04:37:49;94354.56;;;28.00;31.27
65359;BME280;52491;45.900;6.346;2023-07-09T04:40:17;94357.78;;;28.02;31.30
65359;BME280;52491;45.900;6.346;2023-07-09T04:42:43;94354.56;;;28.00;31.63
65359;BME280;52491;45.900;6.346;2023-07-09T04:45:10;94348.94;;;28.01;31.25
65359;BME280;52491;45.900;6.346;2023-07-09T04:47:37;94352.41;;;28.02;31.42
65359;BME280;52491;45.900;6.346;2023-07-09T04:50:08;94353.75;;;27.99;31.52
65359;BME280;52491;45.900;6.346;2023-07-09T04:52:34;94358.03;;;28.00;31.69
65359;BME280;52491;45.900;6.346;2023-07-09T04:54:59;94353.75;;;27.99;31.53
65359;BME280;52491;45.900;6.346;2023-07-09T04:57:27;94350.28;;;27.99;31.64
65359;BME280;52491;45.900;6.346;2023-07-09T04:59:52;94351.63;;;28.01;31.70
65359;BME280;52491;45.900;6.346;2023-07-09T05:02:18;94348.94;;;28.01;31.75
65359;BME280;52491;45.900;6.346;2023-07-09T05:04:43;94347.06;;;28.02;31.70
65359;BME280;52491;45.900;6.346;2023-07-09T05:07:09;94344.34;;;28.07;31.79
65359;BME280;52491;45.900;6.346;2023-07-09T05:09:34;94344.91;;;27.99;31.97
65359;BME280;52491;45.900;6.346;2023-07-09T05:12:00;94336.63;;;27.95;32.08
65359;BME280;52491;45.900;6.346;2023-07-09T05:14:27;94338.75;;;27.98;32.04
65359;BME280;52491;45.900;6.346;2023-07-09T05:16:53;94336.91;;;27.94;32.06
65359;BME280;52491;45.900;6.346;2023-07-09T05:19:19;94340.91;;;27.91;32.25
65359;BME280;52491;45.900;6.346;2023-07-09T05:21:45;94334.22;;;27.88;32.42
65359;BME280;52491;45.900;6.346;2023-07-09T05:24:10;94336.91;;;27.94;32.30
65359;BME280;52491;45.900;6.346;2023-07-09T05:26:36;94338.50;;;27.95;32.16
65359;BME280;52491;45.900;6.346;2023-07-09T05:29:03;94335.00;;;27.94;32.41
65359;BME280;52491;45.900;6.346;2023-07-09T05:31:30;94339.31;;;27.95;32.54
65359;BME280;52491;45.900;6.346;2023-07-09T05:33:55;94343.59;;;27.96;32.58
65359;BME280;52491;45.900;6.346;2023-07-09T05:36:21;94343.84;;;28.00;32.71
65359;BME280;52491;45.900;6.346;2023-07-09T05:38:46;94342.25;;;27.94;33.30
65359;BME280;52491;45.900;6.346;2023-07-09T05:41:12;94340.69;;;27.82;33.56
65359;BME280;52491;45.900;6.346;2023-07-09T05:43:39;94343.34;;;27.77;33.78
65359;BME280;52491;45.900;6.346;2023-07-09T05:46:05;94336.41;;;27.76;34.23
65359;BME280;52491;45.900;6.346;2023-07-09T05:48:31;94331.53;;;27.78;34.37
65359;BME280;52491;45.900;6.346;2023-07-09T05:50:56;94325.38;;;27.78;34.59
65359;BME280;52491;45.900;6.346;2023-07-09T05:53:22;94323.50;;;27.78;34.76
65359;BME280;52491;45.900;6.346;2023-07-09T05:55:48;94321.13;;;27.77;34.99
65359;BME280;52491;45.900;6.346;2023-07-09T05:58:17;94320.03;;;27.78;35.07
65359;BME280;52491;45.900;6.346;2023-07-09T06:00:43;94321.66;;;27.74;35.19
65359;BME280;52491;45.900;6.346;2023-07-09T06:03:09;94315.53;;;27.68;35.68
65359;BME280;52491;45.900;6.346;2023-07-09T06:05:35;94313.38;;;27.70;35.61
65359;BME280;52491;45.900;6.346;2023-07-09T06:08:00;94319.53;;;27.76;35.69
65359;BME280;52491;45.900;6.346;2023-07-09T06:10:26;94316.84;;;27.71;35.87
65359;BME280;52491;45.900;6.346;2023-07-09T06:12:52;94319.53;;;27.76;35.53
65359;BME280;52491;45.900;6.346;2023-07-09T06:15:18;94318.44;;;27.77;35.63
65359;BME280;52491;45.900;6.346;2023-07-09T06:17:43;94324.06;;;27.85;35.42
65359;BME280;52491;45.900;6.346;2023-07-09T06:20:10;94315.47;;;27.78;35.80
65359;BME280;52491;45.900;6.346;2023-07-09T06:22:36;94323.03;;;27.81;35.60
65359;BME280;52491;45.900;6.346;2023-07-09T06:25:01;94323.03;;;27.81;35.58
65359;BME280;52491;45.900;6.346;2023-07-09T06:27:27;94319.81;;;27.79;35.78
65359;BME280;52491;45.900;6.346;2023-07-09T06:29:53;94314.16;;;27.81;35.73
65359;BME280;52491;45.900;6.346;2023-07-09T06:32:18;94316.03;;;27.80;35.46
65359;BME280;52491;45.900;6.346;2023-07-09T06:34:44;94319.50;;;27.81;35.39
65359;BME280;52491;45.900;6.346;2023-07-09T06:37:09;94315.47;;;27.78;35.54
65359;BME280;52491;45.900;6.346;2023-07-09T06:39:35;94321.38;;;27.85;35.26
65359;BME280;52491;45.900;6.346;2023-07-09T06:42:01;94312.00;;;27.83;35.04
65359;BME280;52491;45.900;6.346;2023-07-09T06:44:26;94313.59;;;27.84;34.89
65359;BME280;52491;45.900;6.346;2023-07-09T06:46:52;94314.66;;;27.93;34.96
65359;BME280;52491;45.900;6.346;2023-07-09T06:49:17;94312.22;;;27.97;34.93
65359;BME280;52491;45.900;6.346;2023-07-09T06:51:43;94316.56;;;27.87;35.41
65359;BME280;52491;45.900;6.346;2023-07-09T06:54:09;94316.00;;;27.91;35.84
65359;BME280;52491;45.900;6.346;2023-07-09T06:56:34;94313.03;;;27.92;35.95
65359;BME280;52491;45.900;6.346;2023-07-09T06:59:00;94316.47;;;28.03;36.09
65359;BME280;52491;45.900;6.346;2023-07-09T07:01:26;94321.59;;;28.04;36.13
65359;BME280;52491;45.900;6.346;2023-07-09T07:03:51;94317.56;;;28.07;36.23
65359;BME280;52491;45.900;6.346;2023-07-09T07:06:17;94316.47;;;28.08;36.13
65359;BME280;52491;45.900;6.346;2023-07-09T07:08:42;94312.16;;;28.12;35.83
65359;BME280;52491;45.900;6.346;2023-07-09T07:11:08;94305.19;;;28.11;35.64
65359;BME280;52491;45.900;6.346;2023-07-09T07:13:36;94303.84;;;28.14;35.33
65359;BME280;52491;45.900;6.346;2023-07-09T07:16:04;94302.50;;;28.16;35.24
65359;BME280;52491;45.900;6.346;2023-07-09T07:18:29;94312.69;;;28.14;35.62
65359;BME280;52491;45.900;6.346;2023-07-09T07:20:55;94307.31;;;28.14;35.82
65359;BME280;52491;45.900;6.346;2023-07-09T07:23:20;94311.91;;;28.03;35.98
65359;BME280;52491;45.900;6.346;2023-07-09T07:25:47;94301.69;;;28.16;35.76
65359;BME280;52491;45.900;6.346;2023-07-09T07:28:12;94307.59;;;28.18;35.72
65359;BME280;52491;45.900;6.346;2023-07-09T07:30:38;94307.28;;;28.24;35.68
65359;BME280;52491;45.900;6.346;2023-07-09T07:33:04;94306.19;;;28.25;35.37
65359;BME280;52491;45.900;6.346;2023-07-09T07:35:29;94310.50;;;28.26;35.57
65359;BME280;52491;45.900;6.346;2023-07-09T07:37:55;94305.38;;;28.30;35.32
65359;BME280;52491;45.900;6.346;2023-07-09T07:40:20;94299.22;;;28.29;35.33
65359;BME280;52491;45.900;6.346;2023-07-09T07:42:46;94310.50;;;28.26;35.36
65359;BME280;52491;45.900;6.346;2023-07-09T07:45:12;94306.97;;;28.26;35.24
65359;BME280;52491;45.900;6.346;2023-07-09T07:47:38;94297.09;;;28.26;35.04
65359;BME280;52491;45.900;6.346;2023-07-09T07:50:05;94294.41;;;28.26;35.12
65359;BME280;52491;45.900;6.346;2023-07-09T07:52:31;94289.53;;;28.28;35.11
65359;BME280;52491;45.900;6.346;2023-07-09T07:54:58;94292.50;;;28.32;34.79
65359;BME280;52491;45.900;6.346;2023-07-09T07:57:24;94286.84;;;28.33;34.61
65359;BME280;52491;45.900;6.346;2023-07-09T07:59:51;94279.31;;;28.36;34.25
65359;BME280;52491;45.900;6.346;2023-07-09T08:02:16;94284.38;;;28.37;34.48
65359;BME280;52491;45.900;6.346;2023-07-09T08:04:42;94281.72;;;28.37;34.22
65359;BME280;52491;45.900;6.346;2023-07-09T08:07:09;94284.44;;;28.32;34.15
65359;BME280;52491;45.900;6.346;2023-07-09T08:09:35;94272.91;;;28.31;34.24
65359;BME280;52491;45.900;6.346;2023-07-09T08:12:01;94277.97;;;28.38;34.03
65359;BME280;52491;45.900;6.346;2023-07-09T08:14:34;94283.56;;;28.42;33.98
65359;BME280;52491;45.900;6.346;2023-07-09T08:17:00;94280.34;;;28.40;33.84
65359;BME280;52491;45.900;6.346;2023-07-09T08:19:25;94279.28;;;28.41;33.77
65359;BME280;52491;45.900;6.346;2023-07-09T08:21:51;94280.09;;;28.41;33.68
65359;BME280;52491;45.900;6.346;2023-07-09T08:24:16;94285.19;;;28.43;33.46
65359;BME280;52491;45.900;6.346;2023-07-09T08:26:42;94286.81;;;28.44;33.49
65359;BME280;52491;45.900;6.346;2023-07-09T08:29:07;94277.66;;;28.45;33.23
65359;BME280;52491;45.900;6.346;2023-07-09T08:31:33;94279.28;;;28.46;33.16
65359;BME280;52491;45.900;6.346;2023-07-09T08:33:59;94280.09;;;28.46;33.03
65359;BME280;52491;45.900;6.346;2023-07-09T08:36:24;94277.13;;;28.48;32.92
65359;BME280;52491;45.900;6.346;2023-07-09T08:38:50;94277.91;;;28.48;33.07
65359;BME280;52491;45.900;6.346;2023-07-09T08:46:38;94271.44;;;28.54;32.32
65359;BME280;52491;45.900;6.346;2023-07-09T08:52:14;94270.09;;;28.57;32.42
65359;BME280;52491;45.900;6.346;2023-07-09T08:54:46;94268.22;;;28.58;32.18
65359;BME280;52491;45.900;6.346;2023-07-09T08:57:26;94268.44;;;28.61;32.32
65359;BME280;52491;45.900;6.346;2023-07-09T08:59:59;94270.34;;;28.61;32.09
65359;BME280;52491;45.900;6.346;2023-07-09T09:02:41;94273.25;;;28.64;32.33
65359;BME280;52491;45.900;6.346;2023-07-09T09:05:11;94263.59;;;28.63;31.83
65359;BME280;52491;45.900;6.346;2023-07-09T09:07:42;94266.81;;;28.65;32.25
65359;BME280;52491;45.900;6.346;2023-07-09T09:10:17;94267.59;;;28.71;31.85
65359;BME280;52491;45.900;6.346;2023-07-09T09:15:50;94267.84;;;28.69;31.43
65359;BME280;52491;45.900;6.346;2023-07-09T09:18:25;94259.53;;;28.71;31.43
65359;BME280;52491;45.900;6.346;2023-07-09T09:21:25;94259.47;;;28.76;31.25
65359;BME280;52491;45.900;6.346;2023-07-09T09:23:57;94258.97;;;28.74;31.21
65359;BME280;52491;45.900;6.346;2023-07-09T09:26:33;94258.13;;;28.73;31.52
65359;BME280;52491;45.900;6.346;2023-07-09T09:29:00;94254.09;;;28.76;31.81
65359;BME280;52491;45.900;6.346;2023-07-09T09:31:29;94258.41;;;28.77;31.64
65359;BME280;52491;45.900;6.346;2023-07-09T09:33:55;94255.97;;;28.75;31.83
65359;BME280;52491;45.900;6.346;2023-07-09T09:36:25;94253.03;;;28.77;31.80
65359;BME280;52491;45.900;6.346;2023-07-09T09:38:52;94254.91;;;28.76;32.02
65359;BME280;52491;45.900;6.346;2023-07-09T09:41:22;94256.50;;;28.77;31.50
65359;BME280;52491;45.900;6.346;2023-07-09T09:43:51;94254.63;;;28.78;31.29
65359;BME280;52491;45.900;6.346;2023-07-09T09:46:23;94248.72;;;28.37;31.66
65359;BME280;52491;45.900;6.346;2023-07-09T09:48:53;94251.03;;;28.59;31.00
65359;BME280;52491;45.900;6.346;2023-07-09T09:51:19;94250.06;;;28.78;30.70
65359;BME280;52491;45.900;6.346;2023-07-09T09:53:48;94246.25;;;28.85;30.81
65359;BME280;52491;45.900;6.346;2023-07-09T09:56:19;94247.06;;;28.85;31.03
65359;BME280;52491;45.900;6.346;2023-07-09T09:58:45;94247.00;;;28.90;31.00
65359;BME280;52491;45.900;6.346;2023-07-09T10:01:15;94247.81;;;28.91;31.21
65359;BME280;52491;45.900;6.346;2023-07-09T10:03:41;94243.25;;;28.91;31.35
65359;BME280;52491;45.900;6.346;2023-07-09T10:08:50;94251.09;;;28.83;31.76
65359;BME280;52491;45.900;6.346;2023-07-09T10:13:57;94249.19;;;28.88;31.93
65359;BME280;52491;45.900;6.346;2023-07-09T10:16:45;94246.19;;;28.90;31.86
65359;BME280;52491;45.900;6.346;2023-07-09T10:19:34;94242.19;;;28.87;32.13
65359;BME280;52491;45.900;6.346;2023-07-09T10:22:06;94247.66;;;28.77;32.16
65359;BME280;52491;45.900;6.346;2023-07-09T10:25:01;94242.56;;;28.75;32.39
65359;BME280;52491;45.900;6.346;2023-07-09T10:32:58;94239.28;;;28.84;32.69
65359;BME280;52491;45.900;6.346;2023-07-09T10:35:35;94237.66;;;28.88;32.87
65359;BME280;52491;45.900;6.346;2023-07-09T10:40:39;94244.03;;;28.92;32.94
65359;BME280;52491;45.900;6.346;2023-07-09T10:43:13;94234.09;;;28.92;32.75
65359;BME280;52491;45.900;6.346;2023-07-09T10:45:52;94233.06;;;28.88;33.04
65359;BME280;52491;45.900;6.346;2023-07-09T10:51:00;94227.72;;;28.88;33.11
65359;BME280;52491;45.900;6.346;2023-07-09T10:53:39;94232.22;;;28.93;33.11
65359;BME280;52491;45.900;6.346;2023-07-09T10:56:12;94230.63;;;28.92;33.25
65359;BME280;52491;45.900;6.346;2023-07-09T10:59:21;94220.41;;;28.94;33.09
65359;BME280;52491;45.900;6.346;2023-07-09T11:01:51;94223.66;;;28.91;33.12
65359;BME280;52491;45.900;6.346;2023-07-09T11:04:29;94224.16;;;28.93;33.28
65359;BME280;52491;45.900;6.346;2023-07-09T11:06:58;94219.41;;;28.85;33.69
65359;BME280;52491;45.900;6.346;2023-07-09T11:09:33;94218.88;;;28.88;33.57
65359;BME280;52491;45.900;6.346;2023-07-09T11:12:14;94216.69;;;28.90;33.80
65359;BME280;52491;45.900;6.346;2023-07-09T11:14:46;94216.69;;;28.90;33.75
65359;BME280;52491;45.900;6.346;2023-07-09T11:17:18;94220.97;;;28.91;33.59
65359;BME280;52491;45.900;6.346;2023-07-09T11:19:46;94217.78;;;28.89;33.45
65359;BME280;52491;45.900;6.346;2023-07-09T11:22:38;94216.09;;;28.93;33.49
65359;BME280;52491;45.900;6.346;2023-07-09T11:25:11;94216.41;;;28.91;33.30
65359;BME280;52491;45.900;6.346;2023-07-09T11:27:51;94216.09;;;28.93;33.73
65359;BME280;52491;45.900;6.346;2023-07-09T11:30:22;94223.94;;;28.89;33.48
65359;BME280;52491;45.900;6.346;2023-07-09T11:32:53;94222.56;;;28.92;33.50
65359;BME280;52491;45.900;6.346;2023-07-09T11:35:24;94227.16;;;28.91;33.73
65359;BME280;52491;45.900;6.346;2023-07-09T11:37:50;94223.66;;;28.91;33.55
65359;BME280;52491;45.900;6.346;2023-07-09T11:40:16;94224.47;;;28.91;33.58
65359;BME280;52491;45.900;6.346;2023-07-09T11:45:36;94222.00;;;28.95;33.59
65359;BME280;52491;45.900;6.346;2023-07-09T11:48:29;94224.13;;;28.98;33.71
65359;BME280;52491;45.900;6.346;2023-07-09T11:50:58;94215.31;;;28.92;33.76
65359;BME280;52491;45.900;6.346;2023-07-09T11:53:51;94216.09;;;28.93;33.66
65359;BME280;52491;45.900;6.346;2023-07-09T11:56:19;94218.00;;;28.92;33.87
65359;BME280;52491;45.900;6.346;2023-07-09T11:58:55;94210.13;;;29.01;33.42
65359;BME280;52491;45.900;6.346;2023-07-09T12:01:33;94213.00;;;28.81;33.83
65359;BME280;52491;45.900;6.346;2023-07-09T12:03:59;94212.44;;;28.84;34.25
65359;BME280;52491;45.900;6.346;2023-07-09T12:06:30;94206.81;;;28.85;34.27
65359;BME280;52491;45.900;6.346;2023-07-09T12:08:57;94207.38;;;28.82;34.39
65359;BME280;52491;45.900;6.346;2023-07-09T12:11:32;94206.81;;;28.85;34.13
65359;BME280;52491;45.900;6.346;2023-07-09T12:14:02;94210.00;;;28.87;34.01
65359;BME280;52491;45.900;6.346;2023-07-09T12:16:35;94209.72;;;28.89;33.86
65359;BME280;52491;45.900;6.346;2023-07-09T12:19:01;94195.50;;;28.88;34.04
65359;BME280;52491;45.900;6.346;2023-07-09T12:21:27;94192.53;;;28.90;33.99
65359;BME280;52491;45.900;6.346;2023-07-09T12:23:54;94187.94;;;28.90;34.38
65359;BME280;52491;45.900;6.346;2023-07-09T12:26:21;94196.00;;;28.90;34.34
65359;BME280;52491;45.900;6.346;2023-07-09T12:28:52;94190.31;;;28.97;34.20
65359;BME280;52491;45.900;6.346;2023-07-09T12:31:20;94192.47;;;28.95;34.36
65359;BME280;52491;45.900;6.346;2023-07-09T12:33:52;94194.38;;;28.94;34.51
65359;BME280;52491;45.900;6.346;2023-07-09T12:36:18;94189.44;;;28.77;35.07
65359;BME280;52491;45.900;6.346;2023-07-09T12:38:50;94182.34;;;28.87;34.82
65359;BME280;52491;45.900;6.346;2023-07-09T12:41:27;94183.63;;;28.94;34.57
65359;BME280;52491;45.900;6.346;2023-07-09T12:43:54;94185.47;;;28.99;34.62
65359;BME280;52491;45.900;6.346;2023-07-09T12:46:21;94187.09;;;28.95;34.74
65359;BME280;52491;45.900;6.346;2023-07-09T12:48:48;94182.03;;;28.93;34.73
65359;BME280;52491;45.900;6.346;2023-07-09T12:51:18;94182.59;;;28.90;34.83
65359;BME280;52491;45.900;6.346;2023-07-09T12:53:45;94184.25;;;28.86;35.25
65359;BME280;52491;45.900;6.346;2023-07-09T12:56:13;94178.25;;;28.94;35.13
65359;BME280;52491;45.900;6.346;2023-07-09T12:58:40;94178.88;;;28.86;35.07
65359;BME280;52491;45.900;6.346;2023-07-09T13:01:13;94172.72;;;28.86;35.24
65359;BME280;52491;45.900;6.346;2023-07-09T13:03:39;94171.09;;;28.85;35.31
65359;BME280;52491;45.900;6.346;2023-07-09T13:06:20;94172.72;;;28.86;35.35
65359;BME280;52491;45.900;6.346;2023-07-09T13:08:55;94174.16;;;29.02;35.31
65359;BME280;52491;45.900;6.346;2023-07-09T13:11:21;94174.69;;;29.04;34.76
65359;BME280;52491;45.900;6.346;2023-07-09T13:14:03;94178.47;;;28.98;35.16
65359;BME280;52491;45.900;6.346;2023-07-09T13:16:29;94172.66;;;28.91;35.23
65359;BME280;52491;45.900;6.346;2023-07-09T13:18:55;94175.06;;;28.92;35.49
65359;BME280;52491;45.900;6.346;2023-07-09T13:21:21;94172.38;;;28.92;35.19
65359;BME280;52491;45.900;6.346;2023-07-09T13:23:47;94161.84;;;28.96;35.18
65359;BME280;52491;45.900;6.346;2023-07-09T13:26:14;94167.19;;;29.01;35.08
65359;BME280;52491;45.900;6.346;2023-07-09T13:28:42;94157.78;;;29.04;35.21
65359;BME280;52491;45.900;6.346;2023-07-09T13:31:15;94157.53;;;29.00;35.19
65359;BME280;52491;45.900;6.346;2023-07-09T13:33:43;94153.00;;;28.95;35.58
65359;BME280;52491;45.900;6.346;2023-07-09T13:36:10;94155.41;;;28.97;35.61
65359;BME280;52491;45.900;6.346;2023-07-09T13:38:35;94153.53;;;28.97;35.71
65359;BME280;52491;45.900;6.346;2023-07-09T13:41:13;94157.53;;;29.00;35.62